sensor_id;sensor_type;location;lat;lon;timestamp;temperature;humidity
46336;DHT22;31365;48.858;8.530;2023-02-01T00:01:28;4.80;99.90
46336;DHT22;31365;48.858;8.530;2023-02-01T00:03:58;4.80;99.90
46336;DHT22;31365;48.858;8.530;2023-02-01T00:06:27;4.80;99.90
46336;DHT22;31365;48.858;8.530;2023-02-01T00:08:55;4.80;99.90
46336;DHT22;31365;48.858;8.530;2023-02-01T00:11:24;4.80;99.90
46336;DHT22;31365;48.858;8.530;2023-02-01T00:13:53;4.80;99.90
46336;DHT22;31365;48.858;8.530;2023-02-01T00:16:24;4.80;99.90
46336;DHT22;31365;48.858;8.530;2023-02-01T00:18:59;4.80;99.90
46336;DHT22;31365;48.858;8.530;2023-02-01T00:21:30;4.80;99.90
46336;DHT22;31365;48.858;8.530;2023-02-01T00:23:59;4.80;99.90
46336;DHT22;31365;48.858;8.530;2023-02-01T00:26:32;4.80;99.90
46336;DHT22;31365;48.858;8.530;2023-02-01T00:29:04;4.80;99.90
46336;DHT22;31365;48.858;8.530;2023-02-01T00:31:34;4.80;99.90
46336;DHT22;31365;48.858;8.530;2023-02-01T00:34:06;4.80;99.90
46336;DHT22;31365;48.858;8.530;2023-02-01T00:36:35;4.90;99.90
46336;DHT22;31365;48.858;8.530;2023-02-01T00:39:03;4.90;99.90
46336;DHT22;31365;48.858;8.530;2023-02-01T00:41:32;4.90;99.90
46336;DHT22;31365;48.858;8.530;2023-02-01T00:44:00;4.90;99.90
46336;DHT22;31365;48.858;8.530;2023-02-01T00:46:30;5.00;99.90
46336;DHT22;31365;48.858;8.530;2023-02-01T00:49:00;5.00;99.90
46336;DHT22;31365;48.858;8.530;2023-02-01T00:51:30;5.00;99.90
46336;DHT22;31365;48.858;8.530;2023-02-01T00:53:59;5.10;99.90
46336;DHT22;31365;48.858;8.530;2023-02-01T00:56:28;5.10;99.90
46336;DHT22;31365;48.858;8.530;2023-02-01T00:58:58;5.10;99.90
46336;DHT22;31365;48.858;8.530;2023-02-01T01:01:27;5.10;99.90
46336;DHT22;31365;48.858;8.530;2023-02-01T01:03:57;5.10;99.90
46336;DHT22;31365;48.858;8.530;2023-02-01T01:06:27;5.10;99.90
46336;DHT22;31365;48.858;8.530;2023-02-01T01:09:01;5.00;99.90
46336;DHT22;31365;48.858;8.530;2023-02-01T01:11:33;5.00;99.90
46336;DHT22;31365;48.858;8.530;2023-02-01T01:14:06;5.10;99.90
46336;DHT22;31365;48.858;8.530;2023-02-01T01:16:35;5.10;99.90
46336;DHT22;31365;48.858;8.530;2023-02-01T01:19:04;5.10;99.90
46336;DHT22;31365;48.858;8.530;2023-02-01T01:21:33;5.10;99.90
46336;DHT22;31365;48.858;8.530;2023-02-01T01:24:04;5.10;99.90
46336;DHT22;31365;48.858;8.530;2023-02-01T01:26:33;5.10;99.90
46336;DHT22;31365;48.858;8.530;2023-02-01T01:29:02;5.10;99.90
46336;DHT22;31365;48.858;8.530;2023-02-01T01:31:31;5.10;99.90
46336;DHT22;31365;48.858;8.530;2023-02-01T01:34:00;5.10;99.90
46336;DHT22;31365;48.858;8.530;2023-02-01T01:36:29;5.10;99.90
46336;DHT22;31365;48.858;8.530;2023-02-01T01:38:58;5.10;99.90
46336;DHT22;31365;48.858;8.530;2023-02-01T01:41:30;5.10;99.90
46336;DHT22;31365;48.858;8.530;2023-02-01T01:47:24;5.10;99.90
46336;DHT22;31365;48.858;8.530;2023-02-01T01:49:55;5.10;99.90
46336;DHT22;31365;48.858;8.530;2023-02-01T01:52:23;5.10;99.90
46336;DHT22;31365;48.858;8.530;2023-02-01T01:54:53;5.10;99.90
46336;DHT22;31365;48.858;8.530;2023-02-01T01:57:26;5.10;99.90
46336;DHT22;31365;48.858;8.530;2023-02-01T02:00:03;5.10;99.90
46336;DHT22;31365;48.858;8.530;2023-02-01T02:02:40;5.10;99.90
46336;DHT22;31365;48.858;8.530;2023-02-01T02:05:13;5.10;99.90
46336;DHT22;31365;48.858;8.530;2023-02-01T02:07:47;5.10;99.90
46336;DHT22;31365;48.858;8.530;2023-02-01T02:10:19;5.10;99.90
46336;DHT22;31365;48.858;8.530;2023-02-01T02:13:10;5.20;99.90
46336;DHT22;31365;48.858;8.530;2023-02-01T02:15:43;5.10;99.90
46336;DHT22;31365;48.858;8.530;2023-02-01T02:18:22;5.00;99.90
46336;DHT22;31365;48.858;8.530;2023-02-01T02:21:10;5.00;99.90
46336;DHT22;31365;48.858;8.530;2023-02-01T02:24:09;5.00;99.90
46336;DHT22;31365;48.858;8.530;2023-02-01T02:27:17;5.00;99.90
46336;DHT22;31365;48.858;8.530;2023-02-01T02:30:15;5.00;99.90
46336;DHT22;31365;48.858;8.530;2023-02-01T02:36:28;5.10;99.90
46336;DHT22;31365;48.858;8.530;2023-02-01T02:39:07;5.10;99.90
46336;DHT22;31365;48.858;8.530;2023-02-01T02:41:50;5.10;99.90
46336;DHT22;31365;48.858;8.530;2023-02-01T02:45:02;5.10;99.90
46336;DHT22;31365;48.858;8.530;2023-02-01T02:47:57;5.10;99.90
46336;DHT22;31365;48.858;8.530;2023-02-01T02:50:35;5.20;99.90
46336;DHT22;31365;48.858;8.530;2023-02-01T02:53:30;5.10;99.90
46336;DHT22;31365;48.858;8.530;2023-02-01T02:56:21;5.10;99.90
46336;DHT22;31365;48.858;8.530;2023-02-01T02:59:18;5.10;99.90
46336;DHT22;31365;48.858;8.530;2023-02-01T03:02:07;5.10;99.90
46336;DHT22;31365;48.858;8.530;2023-02-01T03:04:54;5.10;99.90
46336;DHT22;31365;48.858;8.530;2023-02-01T03:07:53;5.10;99.90
46336;DHT22;31365;48.858;8.530;2023-02-01T03:13:33;5.10;99.90
46336;DHT22;31365;48.858;8.530;2023-02-01T03:16:09;5.10;99.90
46336;DHT22;31365;48.858;8.530;2023-02-01T03:18:48;5.10;99.90
46336;DHT22;31365;48.858;8.530;2023-02-01T03:21:25;5.20;99.90
46336;DHT22;31365;48.858;8.530;2023-02-01T03:24:01;5.10;99.90
46336;DHT22;31365;48.858;8.530;2023-02-01T03:26:38;5.20;99.90
46336;DHT22;31365;48.858;8.530;2023-02-01T03:29:17;5.20;99.90
46336;DHT22;31365;48.858;8.530;2023-02-01T03:31:49;5.20;99.90
46336;DHT22;31365;48.858;8.530;2023-02-01T03:34:18;5.20;99.90
46336;DHT22;31365;48.858;8.530;2023-02-01T03:36:49;5.20;99.90
46336;DHT22;31365;48.858;8.530;2023-02-01T03:39:24;5.20;99.90
46336;DHT22;31365;48.858;8.530;2023-02-01T03:42:00;5.20;99.90
46336;DHT22;31365;48.858;8.530;2023-02-01T03:44:34;5.20;99.90
46336;DHT22;31365;48.858;8.530;2023-02-01T03:47:09;5.30;99.90
46336;DHT22;31365;48.858;8.530;2023-02-01T03:49:44;5.30;99.90
46336;DHT22;31365;48.858;8.530;2023-02-01T03:52:20;5.30;99.90
46336;DHT22;31365;48.858;8.530;2023-02-01T03:54:50;5.30;99.90
46336;DHT22;31365;48.858;8.530;2023-02-01T03:57:25;5.30;99.90
46336;DHT22;31365;48.858;8.530;2023-02-01T04:00:05;5.40;99.90
46336;DHT22;31365;48.858;8.530;2023-02-01T04:02:41;5.40;99.90
46336;DHT22;31365;48.858;8.530;2023-02-01T04:05:11;5.30;99.90
46336;DHT22;31365;48.858;8.530;2023-02-01T04:07:46;5.40;99.90
46336;DHT22;31365;48.858;8.530;2023-02-01T04:10:15;5.40;99.90
46336;DHT22;31365;48.858;8.530;2023-02-01T04:12:47;5.40;99.90
46336;DHT22;31365;48.858;8.530;2023-02-01T04:15:15;5.40;99.90
46336;DHT22;31365;48.858;8.530;2023-02-01T04:17:43;5.40;99.90
46336;DHT22;31365;48.858;8.530;2023-02-01T04:20:12;5.40;99.90
46336;DHT22;31365;48.858;8.530;2023-02-01T04:22:40;5.40;99.90
46336;DHT22;31365;48.858;8.530;2023-02-01T04:25:09;5.40;99.90
46336;DHT22;31365;48.858;8.530;2023-02-01T04:27:37;5.40;99.90
46336;DHT22;31365;48.858;8.530;2023-02-01T04:30:11;5.40;99.90
46336;DHT22;31365;48.858;8.530;2023-02-01T04:32:40;5.30;99.90
46336;DHT22;31365;48.858;8.530;2023-02-01T04:35:09;5.30;99.90
46336;DHT22;31365;48.858;8.530;2023-02-01T04:37:38;5.30;99.90
46336;DHT22;31365;48.858;8.530;2023-02-01T04:40:08;5.30;99.90
46336;DHT22;31365;48.858;8.530;2023-02-01T04:42:38;5.30;99.90
46336;DHT22;31365;48.858;8.530;2023-02-01T04:45:07;5.40;99.90
46336;DHT22;31365;48.858;8.530;2023-02-01T04:47:38;5.40;99.90
46336;DHT22;31365;48.858;8.530;2023-02-01T04:50:07;5.40;99.90
46336;DHT22;31365;48.858;8.530;2023-02-01T04:52:37;5.40;99.90
46336;DHT22;31365;48.858;8.530;2023-02-01T04:55:06;5.40;99.90
46336;DHT22;31365;48.858;8.530;2023-02-01T04:57:35;5.40;99.90
46336;DHT22;31365;48.858;8.530;2023-02-01T05:00:06;5.50;99.90
46336;DHT22;31365;48.858;8.530;2023-02-01T05:02:38;5.50;99.90
46336;DHT22;31365;48.858;8.530;2023-02-01T05:05:07;5.50;99.90
46336;DHT22;31365;48.858;8.530;2023-02-01T05:07:36;5.50;99.90
46336;DHT22;31365;48.858;8.530;2023-02-01T05:10:05;5.50;99.90
46336;DHT22;31365;48.858;8.530;2023-02-01T05:12:34;5.40;99.90
46336;DHT22;31365;48.858;8.530;2023-02-01T05:15:20;5.30;99.90
46336;DHT22;31365;48.858;8.530;2023-02-01T05:17:50;5.20;99.90
46336;DHT22;31365;48.858;8.530;2023-02-01T05:20:19;5.20;99.90
46336;DHT22;31365;48.858;8.530;2023-02-01T05:22:48;5.10;99.90
46336;DHT22;31365;48.858;8.530;2023-02-01T05:25:16;5.10;99.90
46336;DHT22;31365;48.858;8.530;2023-02-01T05:27:46;5.10;99.90
46336;DHT22;31365;48.858;8.530;2023-02-01T05:30:15;5.10;99.90
46336;DHT22;31365;48.858;8.530;2023-02-01T05:32:43;5.00;99.90
46336;DHT22;31365;48.858;8.530;2023-02-01T05:35:13;5.00;99.90
46336;DHT22;31365;48.858;8.530;2023-02-01T05:37:41;5.00;99.90
46336;DHT22;31365;48.858;8.530;2023-02-01T05:40:11;5.00;99.90
46336;DHT22;31365;48.858;8.530;2023-02-01T05:42:39;5.00;99.90
46336;DHT22;31365;48.858;8.530;2023-02-01T05:45:08;5.00;99.90
46336;DHT22;31365;48.858;8.530;2023-02-01T05:47:37;5.00;99.90
46336;DHT22;31365;48.858;8.530;2023-02-01T05:50:06;5.00;99.90
46336;DHT22;31365;48.858;8.530;2023-02-01T05:52:37;5.10;99.90
46336;DHT22;31365;48.858;8.530;2023-02-01T05:55:06;5.10;99.90
46336;DHT22;31365;48.858;8.530;2023-02-01T05:57:35;5.10;99.90
46336;DHT22;31365;48.858;8.530;2023-02-01T06:00:04;5.10;99.90
46336;DHT22;31365;48.858;8.530;2023-02-01T06:02:38;5.10;99.90
46336;DHT22;31365;48.858;8.530;2023-02-01T06:05:08;5.10;99.90
46336;DHT22;31365;48.858;8.530;2023-02-01T06:07:37;5.10;99.90
46336;DHT22;31365;48.858;8.530;2023-02-01T06:10:06;5.10;99.90
46336;DHT22;31365;48.858;8.530;2023-02-01T06:12:36;5.10;99.90
46336;DHT22;31365;48.858;8.530;2023-02-01T06:15:06;5.10;99.90
46336;DHT22;31365;48.858;8.530;2023-02-01T06:17:35;5.10;99.90
46336;DHT22;31365;48.858;8.530;2023-02-01T06:20:05;5.10;99.90
46336;DHT22;31365;48.858;8.530;2023-02-01T06:22:37;5.10;99.90
46336;DHT22;31365;48.858;8.530;2023-02-01T06:25:07;5.10;99.90
46336;DHT22;31365;48.858;8.530;2023-02-01T06:27:37;5.00;99.90
46336;DHT22;31365;48.858;8.530;2023-02-01T06:30:07;5.00;99.90
46336;DHT22;31365;48.858;8.530;2023-02-01T06:32:36;5.00;99.90
46336;DHT22;31365;48.858;8.530;2023-02-01T06:35:07;5.00;99.90
46336;DHT22;31365;48.858;8.530;2023-02-01T06:37:39;5.10;99.90
46336;DHT22;31365;48.858;8.530;2023-02-01T06:40:08;5.10;99.90
46336;DHT22;31365;48.858;8.530;2023-02-01T06:42:37;5.10;99.90
46336;DHT22;31365;48.858;8.530;2023-02-01T06:45:07;5.10;99.90
46336;DHT22;31365;48.858;8.530;2023-02-01T06:47:35;5.20;99.90
46336;DHT22;31365;48.858;8.530;2023-02-01T06:50:04;5.20;99.90
46336;DHT22;31365;48.858;8.530;2023-02-01T06:52:33;5.20;99.90
46336;DHT22;31365;48.858;8.530;2023-02-01T06:55:03;5.20;99.90
46336;DHT22;31365;48.858;8.530;2023-02-01T06:57:32;5.20;99.90
46336;DHT22;31365;48.858;8.530;2023-02-01T07:00:03;5.20;99.90
46336;DHT22;31365;48.858;8.530;2023-02-01T07:02:31;5.20;99.90
46336;DHT22;31365;48.858;8.530;2023-02-01T07:05:00;5.30;99.90
46336;DHT22;31365;48.858;8.530;2023-02-01T07:07:28;5.30;99.90
46336;DHT22;31365;48.858;8.530;2023-02-01T07:09:57;5.30;99.90
46336;DHT22;31365;48.858;8.530;2023-02-01T07:12:26;5.30;99.90
46336;DHT22;31365;48.858;8.530;2023-02-01T07:14:55;5.30;99.90
46336;DHT22;31365;48.858;8.530;2023-02-01T07:17:23;5.30;99.90
46336;DHT22;31365;48.858;8.530;2023-02-01T07:19:51;5.30;99.90
46336;DHT22;31365;48.858;8.530;2023-02-01T07:22:20;5.30;99.90
46336;DHT22;31365;48.858;8.530;2023-02-01T07:24:48;5.30;99.90
46336;DHT22;31365;48.858;8.530;2023-02-01T07:27:17;5.30;99.90
46336;DHT22;31365;48.858;8.530;2023-02-01T07:29:48;5.40;99.90
46336;DHT22;31365;48.858;8.530;2023-02-01T07:32:18;5.40;99.90
46336;DHT22;31365;48.858;8.530;2023-02-01T07:34:47;5.40;99.90
46336;DHT22;31365;48.858;8.530;2023-02-01T07:37:15;5.40;99.90
46336;DHT22;31365;48.858;8.530;2023-02-01T07:39:44;5.40;99.90
46336;DHT22;31365;48.858;8.530;2023-02-01T07:42:13;5.40;99.90
46336;DHT22;31365;48.858;8.530;2023-02-01T07:44:42;5.40;99.90
46336;DHT22;31365;48.858;8.530;2023-02-01T07:47:12;5.40;99.90
46336;DHT22;31365;48.858;8.530;2023-02-01T07:49:40;5.50;99.90
46336;DHT22;31365;48.858;8.530;2023-02-01T07:52:08;5.50;99.90
46336;DHT22;31365;48.858;8.530;2023-02-01T07:54:37;5.50;99.90
46336;DHT22;31365;48.858;8.530;2023-02-01T07:57:06;5.50;99.90
46336;DHT22;31365;48.858;8.530;2023-02-01T07:59:35;5.50;99.90
46336;DHT22;31365;48.858;8.530;2023-02-01T08:02:25;5.50;99.90
46336;DHT22;31365;48.858;8.530;2023-02-01T08:04:54;5.40;99.90
46336;DHT22;31365;48.858;8.530;2023-02-01T08:07:22;5.50;99.90
46336;DHT22;31365;48.858;8.530;2023-02-01T08:09:50;5.50;99.90
46336;DHT22;31365;48.858;8.530;2023-02-01T08:12:19;5.50;99.90
46336;DHT22;31365;48.858;8.530;2023-02-01T08:14:47;5.60;99.90
46336;DHT22;31365;48.858;8.530;2023-02-01T08:17:16;5.60;99.90
46336;DHT22;31365;48.858;8.530;2023-02-01T08:19:45;5.60;99.90
46336;DHT22;31365;48.858;8.530;2023-02-01T08:22:13;5.60;99.90
46336;DHT22;31365;48.858;8.530;2023-02-01T08:24:42;5.60;99.90
46336;DHT22;31365;48.858;8.530;2023-02-01T08:27:11;5.70;99.90
46336;DHT22;31365;48.858;8.530;2023-02-01T08:29:39;5.70;99.90
46336;DHT22;31365;48.858;8.530;2023-02-01T08:32:07;5.70;99.90
46336;DHT22;31365;48.858;8.530;2023-02-01T08:34:36;5.70;99.90
46336;DHT22;31365;48.858;8.530;2023-02-01T08:37:06;5.70;99.90
46336;DHT22;31365;48.858;8.530;2023-02-01T08:39:34;5.70;99.90
46336;DHT22;31365;48.858;8.530;2023-02-01T08:42:04;5.70;99.90
46336;DHT22;31365;48.858;8.530;2023-02-01T08:44:49;5.60;99.90
46336;DHT22;31365;48.858;8.530;2023-02-01T08:47:18;5.60;99.90
46336;DHT22;31365;48.858;8.530;2023-02-01T08:49:46;5.70;99.90
46336;DHT22;31365;48.858;8.530;2023-02-01T08:52:16;5.80;99.90
46336;DHT22;31365;48.858;8.530;2023-02-01T08:54:44;5.80;99.90
46336;DHT22;31365;48.858;8.530;2023-02-01T08:57:13;5.80;99.90
46336;DHT22;31365;48.858;8.530;2023-02-01T08:59:42;5.90;99.90
46336;DHT22;31365;48.858;8.530;2023-02-01T09:02:12;5.90;99.90
46336;DHT22;31365;48.858;8.530;2023-02-01T09:04:41;5.90;99.90
46336;DHT22;31365;48.858;8.530;2023-02-01T09:07:11;5.90;99.90
46336;DHT22;31365;48.858;8.530;2023-02-01T09:09:41;5.90;99.90
46336;DHT22;31365;48.858;8.530;2023-02-01T09:12:11;6.00;99.90
46336;DHT22;31365;48.858;8.530;2023-02-01T09:14:39;6.10;99.90
46336;DHT22;31365;48.858;8.530;2023-02-01T09:17:08;6.10;99.90
46336;DHT22;31365;48.858;8.530;2023-02-01T09:19:37;6.10;99.90
46336;DHT22;31365;48.858;8.530;2023-02-01T09:22:08;6.20;99.90
46336;DHT22;31365;48.858;8.530;2023-02-01T09:24:36;6.10;99.90
46336;DHT22;31365;48.858;8.530;2023-02-01T09:27:07;6.10;99.90
46336;DHT22;31365;48.858;8.530;2023-02-01T09:29:35;6.10;99.90
46336;DHT22;31365;48.858;8.530;2023-02-01T09:32:04;6.10;99.90
46336;DHT22;31365;48.858;8.530;2023-02-01T09:34:34;6.00;99.90
46336;DHT22;31365;48.858;8.530;2023-02-01T09:37:03;6.10;99.90
46336;DHT22;31365;48.858;8.530;2023-02-01T09:39:31;6.10;99.90
46336;DHT22;31365;48.858;8.530;2023-02-01T09:42:11;6.10;99.90
46336;DHT22;31365;48.858;8.530;2023-02-01T09:45:03;6.20;99.90
46336;DHT22;31365;48.858;8.530;2023-02-01T09:47:45;6.20;99.90
46336;DHT22;31365;48.858;8.530;2023-02-01T09:50:21;6.20;99.90
46336;DHT22;31365;48.858;8.530;2023-02-01T09:53:00;6.30;99.90
46336;DHT22;31365;48.858;8.530;2023-02-01T09:55:38;6.30;99.90
46336;DHT22;31365;48.858;8.530;2023-02-01T09:58:16;6.30;99.90
46336;DHT22;31365;48.858;8.530;2023-02-01T10:00:52;6.30;99.90
46336;DHT22;31365;48.858;8.530;2023-02-01T10:03:24;6.40;99.90
46336;DHT22;31365;48.858;8.530;2023-02-01T10:06:06;6.40;99.90
46336;DHT22;31365;48.858;8.530;2023-02-01T10:08:58;6.40;99.90
46336;DHT22;31365;48.858;8.530;2023-02-01T10:11:42;6.40;99.90
46336;DHT22;31365;48.858;8.530;2023-02-01T10:14:46;6.40;99.90
46336;DHT22;31365;48.858;8.530;2023-02-01T10:17:42;6.60;99.90
46336;DHT22;31365;48.858;8.530;2023-02-01T10:20:29;6.60;99.90
46336;DHT22;31365;48.858;8.530;2023-02-01T10:23:25;6.60;99.90
46336;DHT22;31365;48.858;8.530;2023-02-01T10:26:33;6.70;99.90
46336;DHT22;31365;48.858;8.530;2023-02-01T10:29:14;6.60;99.90
46336;DHT22;31365;48.858;8.530;2023-02-01T10:31:46;6.60;99.90
46336;DHT22;31365;48.858;8.530;2023-02-01T10:34:18;6.60;99.90
46336;DHT22;31365;48.858;8.530;2023-02-01T10:36:54;6.60;99.90
46336;DHT22;31365;48.858;8.530;2023-02-01T10:39:24;6.60;99.90
46336;DHT22;31365;48.858;8.530;2023-02-01T10:41:54;6.60;99.90
46336;DHT22;31365;48.858;8.530;2023-02-01T10:44:26;6.60;99.90
46336;DHT22;31365;48.858;8.530;2023-02-01T10:46:57;6.60;99.90
46336;DHT22;31365;48.858;8.530;2023-02-01T10:49:32;6.60;99.90
46336;DHT22;31365;48.858;8.530;2023-02-01T10:52:11;6.60;99.90
46336;DHT22;31365;48.858;8.530;2023-02-01T10:54:42;6.80;99.90
46336;DHT22;31365;48.858;8.530;2023-02-01T10:57:20;6.90;99.90
46336;DHT22;31365;48.858;8.530;2023-02-01T10:59:50;7.10;99.90
46336;DHT22;31365;48.858;8.530;2023-02-01T11:02:25;7.20;99.90
46336;DHT22;31365;48.858;8.530;2023-02-01T11:05:01;7.30;99.90
46336;DHT22;31365;48.858;8.530;2023-02-01T11:07:31;7.30;99.90
46336;DHT22;31365;48.858;8.530;2023-02-01T11:10:00;7.30;99.90
46336;DHT22;31365;48.858;8.530;2023-02-01T11:12:31;7.30;99.90
46336;DHT22;31365;48.858;8.530;2023-02-01T11:15:12;7.30;99.90
46336;DHT22;31365;48.858;8.530;2023-02-01T11:17:45;7.60;99.90
46336;DHT22;31365;48.858;8.530;2023-02-01T11:20:33;7.60;99.90
46336;DHT22;31365;48.858;8.530;2023-02-01T11:23:14;7.30;99.90
46336;DHT22;31365;48.858;8.530;2023-02-01T11:25:48;7.20;99.90
46336;DHT22;31365;48.858;8.530;2023-02-01T11:28:22;7.10;99.90
46336;DHT22;31365;48.858;8.530;2023-02-01T11:30:56;6.90;99.90
46336;DHT22;31365;48.858;8.530;2023-02-01T11:33:31;6.80;99.90
46336;DHT22;31365;48.858;8.530;2023-02-01T11:36:07;6.80;99.90
46336;DHT22;31365;48.858;8.530;2023-02-01T11:38:46;6.70;99.90
46336;DHT22;31365;48.858;8.530;2023-02-01T11:41:23;6.70;99.90
46336;DHT22;31365;48.858;8.530;2023-02-01T11:43:55;6.90;99.90
46336;DHT22;31365;48.858;8.530;2023-02-01T11:46:28;7.00;99.90
46336;DHT22;31365;48.858;8.530;2023-02-01T11:49:18;7.10;99.90
46336;DHT22;31365;48.858;8.530;2023-02-01T11:51:59;7.20;99.90
46336;DHT22;31365;48.858;8.530;2023-02-01T11:54:56;7.30;99.90
46336;DHT22;31365;48.858;8.530;2023-02-01T11:57:46;7.20;99.90
46336;DHT22;31365;48.858;8.530;2023-02-01T12:00:36;7.00;99.90
46336;DHT22;31365;48.858;8.530;2023-02-01T12:04:01;6.80;99.90
46336;DHT22;31365;48.858;8.530;2023-02-01T12:06:48;6.60;99.90
46336;DHT22;31365;48.858;8.530;2023-02-01T12:09:31;6.50;99.90
46336;DHT22;31365;48.858;8.530;2023-02-01T12:12:14;6.50;99.90
46336;DHT22;31365;48.858;8.530;2023-02-01T12:15:03;6.60;99.90
46336;DHT22;31365;48.858;8.530;2023-02-01T12:18:08;6.50;99.90
46336;DHT22;31365;48.858;8.530;2023-02-01T12:21:04;6.40;99.90
46336;DHT22;31365;48.858;8.530;2023-02-01T12:23:57;6.30;99.90
46336;DHT22;31365;48.858;8.530;2023-02-01T12:26:44;6.20;99.90
46336;DHT22;31365;48.858;8.530;2023-02-01T12:29:42;6.20;99.90
46336;DHT22;31365;48.858;8.530;2023-02-01T12:32:43;6.10;99.90
46336;DHT22;31365;48.858;8.530;2023-02-01T12:35:57;6.10;99.90
46336;DHT22;31365;48.858;8.530;2023-02-01T12:38:46;6.10;99.90
46336;DHT22;31365;48.858;8.530;2023-02-01T12:41:44;6.20;99.90
46336;DHT22;31365;48.858;8.530;2023-02-01T12:44:27;6.40;99.90
46336;DHT22;31365;48.858;8.530;2023-02-01T12:47:01;6.50;99.90
46336;DHT22;31365;48.858;8.530;2023-02-01T12:49:44;6.50;99.90
46336;DHT22;31365;48.858;8.530;2023-02-01T12:52:23;6.40;99.90
46336;DHT22;31365;48.858;8.530;2023-02-01T12:55:07;6.30;99.90
46336;DHT22;31365;48.858;8.530;2023-02-01T12:57:47;6.20;99.90
46336;DHT22;31365;48.858;8.530;2023-02-01T13:00:24;6.30;99.90
46336;DHT22;31365;48.858;8.530;2023-02-01T13:03:03;6.20;99.90
46336;DHT22;31365;48.858;8.530;2023-02-01T13:05:46;6.30;99.90
46336;DHT22;31365;48.858;8.530;2023-02-01T13:08:24;6.30;99.90
46336;DHT22;31365;48.858;8.530;2023-02-01T13:11:00;6.30;99.90
46336;DHT22;31365;48.858;8.530;2023-02-01T13:13:42;6.20;99.90
46336;DHT22;31365;48.858;8.530;2023-02-01T13:16:18;6.00;99.90
46336;DHT22;31365;48.858;8.530;2023-02-01T13:18:57;5.90;99.90
46336;DHT22;31365;48.858;8.530;2023-02-01T13:21:34;5.80;99.90
46336;DHT22;31365;48.858;8.530;2023-02-01T13:24:25;5.80;99.90
46336;DHT22;31365;48.858;8.530;2023-02-01T13:27:00;5.80;99.90
46336;DHT22;31365;48.858;8.530;2023-02-01T13:29:29;5.70;99.90
46336;DHT22;31365;48.858;8.530;2023-02-01T13:36:02;5.70;99.90
46336;DHT22;31365;48.858;8.530;2023-02-01T13:42:13;5.80;99.90
46336;DHT22;31365;48.858;8.530;2023-02-01T13:44:47;5.90;99.90
46336;DHT22;31365;48.858;8.530;2023-02-01T13:47:25;5.90;99.90
46336;DHT22;31365;48.858;8.530;2023-02-01T13:49:59;5.90;99.90
46336;DHT22;31365;48.858;8.530;2023-02-01T13:52:36;5.90;99.90
46336;DHT22;31365;48.858;8.530;2023-02-01T13:55:25;5.90;99.90
46336;DHT22;31365;48.858;8.530;2023-02-01T13:58:04;5.90;99.90
46336;DHT22;31365;48.858;8.530;2023-02-01T14:00:39;5.90;99.90
46336;DHT22;31365;48.858;8.530;2023-02-01T14:03:16;6.00;99.90
46336;DHT22;31365;48.858;8.530;2023-02-01T14:06:18;6.10;99.90
46336;DHT22;31365;48.858;8.530;2023-02-01T14:09:15;6.20;99.90
46336;DHT22;31365;48.858;8.530;2023-02-01T14:15:26;6.30;99.90
46336;DHT22;31365;48.858;8.530;2023-02-01T14:17:55;6.40;99.90
46336;DHT22;31365;48.858;8.530;2023-02-01T14:20:46;6.40;99.90
46336;DHT22;31365;48.858;8.530;2023-02-01T14:23:23;6.50;99.90
46336;DHT22;31365;48.858;8.530;2023-02-01T14:26:10;6.50;99.90
46336;DHT22;31365;48.858;8.530;2023-02-01T14:28:44;6.50;99.90
46336;DHT22;31365;48.858;8.530;2023-02-01T14:34:26;6.60;99.90
46336;DHT22;31365;48.858;8.530;2023-02-01T14:37:01;6.60;99.90
46336;DHT22;31365;48.858;8.530;2023-02-01T14:39:40;6.60;99.90
46336;DHT22;31365;48.858;8.530;2023-02-01T14:42:24;6.50;99.90
46336;DHT22;31365;48.858;8.530;2023-02-01T14:44:55;6.60;99.90
46336;DHT22;31365;48.858;8.530;2023-02-01T14:47:47;6.60;99.90
46336;DHT22;31365;48.858;8.530;2023-02-01T14:50:31;6.70;99.90
46336;DHT22;31365;48.858;8.530;2023-02-01T14:53:21;6.70;99.90
46336;DHT22;31365;48.858;8.530;2023-02-01T14:55:55;6.60;99.90
46336;DHT22;31365;48.858;8.530;2023-02-01T14:58:35;6.60;99.90
46336;DHT22;31365;48.858;8.530;2023-02-01T15:01:21;6.50;99.90
46336;DHT22;31365;48.858;8.530;2023-02-01T15:03:56;6.50;99.90
46336;DHT22;31365;48.858;8.530;2023-02-01T15:06:32;6.40;99.90
46336;DHT22;31365;48.858;8.530;2023-02-01T15:09:09;6.40;99.90
46336;DHT22;31365;48.858;8.530;2023-02-01T15:11:56;6.40;99.90
46336;DHT22;31365;48.858;8.530;2023-02-01T15:14:28;6.40;99.90
46336;DHT22;31365;48.858;8.530;2023-02-01T15:16:58;6.40;99.90
46336;DHT22;31365;48.858;8.530;2023-02-01T15:19:29;6.50;99.90
46336;DHT22;31365;48.858;8.530;2023-02-01T15:21:58;6.50;99.90
46336;DHT22;31365;48.858;8.530;2023-02-01T15:24:29;6.50;99.90
46336;DHT22;31365;48.858;8.530;2023-02-01T15:27:03;6.50;99.90
46336;DHT22;31365;48.858;8.530;2023-02-01T15:29:33;6.50;99.90
46336;DHT22;31365;48.858;8.530;2023-02-01T15:32:01;6.40;99.90
46336;DHT22;31365;48.858;8.530;2023-02-01T15:34:46;6.40;99.90
46336;DHT22;31365;48.858;8.530;2023-02-01T15:37:16;6.40;99.90
46336;DHT22;31365;48.858;8.530;2023-02-01T15:40:04;6.30;99.90
46336;DHT22;31365;48.858;8.530;2023-02-01T15:42:51;6.30;99.90
46336;DHT22;31365;48.858;8.530;2023-02-01T15:45:24;6.30;99.90
46336;DHT22;31365;48.858;8.530;2023-02-01T15:47:55;6.30;99.90
46336;DHT22;31365;48.858;8.530;2023-02-01T15:50:29;6.30;99.90
46336;DHT22;31365;48.858;8.530;2023-02-01T15:52:59;6.30;99.90
46336;DHT22;31365;48.858;8.530;2023-02-01T15:55:34;6.30;99.90
46336;DHT22;31365;48.858;8.530;2023-02-01T15:58:15;6.30;99.90
46336;DHT22;31365;48.858;8.530;2023-02-01T16:00:48;6.20;99.90
46336;DHT22;31365;48.858;8.530;2023-02-01T16:03:27;6.20;99.90
46336;DHT22;31365;48.858;8.530;2023-02-01T16:06:05;6.20;99.90
46336;DHT22;31365;48.858;8.530;2023-02-01T16:08:36;6.20;99.90
46336;DHT22;31365;48.858;8.530;2023-02-01T16:11:25;6.20;99.90
46336;DHT22;31365;48.858;8.530;2023-02-01T16:13:57;6.10;99.90
46336;DHT22;31365;48.858;8.530;2023-02-01T16:16:26;6.10;99.90
46336;DHT22;31365;48.858;8.530;2023-02-01T16:18:56;6.10;99.90
46336;DHT22;31365;48.858;8.530;2023-02-01T16:21:25;6.10;99.90
46336;DHT22;31365;48.858;8.530;2023-02-01T16:23:54;6.10;99.90
46336;DHT22;31365;48.858;8.530;2023-02-01T16:26:22;6.10;99.90
46336;DHT22;31365;48.858;8.530;2023-02-01T16:28:51;6.00;99.90
46336;DHT22;31365;48.858;8.530;2023-02-01T16:31:23;6.00;99.90
46336;DHT22;31365;48.858;8.530;2023-02-01T16:33:56;6.00;99.90
46336;DHT22;31365;48.858;8.530;2023-02-01T16:36:27;6.00;99.90
46336;DHT22;31365;48.858;8.530;2023-02-01T16:38:55;5.90;99.90
46336;DHT22;31365;48.858;8.530;2023-02-01T16:41:24;5.90;99.90
46336;DHT22;31365;48.858;8.530;2023-02-01T16:43:55;5.90;99.90
46336;DHT22;31365;48.858;8.530;2023-02-01T16:46:25;5.90;99.90
46336;DHT22;31365;48.858;8.530;2023-02-01T16:48:58;5.80;99.90
46336;DHT22;31365;48.858;8.530;2023-02-01T16:51:31;5.80;99.90
46336;DHT22;31365;48.858;8.530;2023-02-01T16:54:01;5.90;99.90
46336;DHT22;31365;48.858;8.530;2023-02-01T16:56:33;5.90;99.90
46336;DHT22;31365;48.858;8.530;2023-02-01T16:59:03;5.90;99.90